Time;durP1;ratioP1;P1;durP2;ratioP2;P2;SDS_P1;SDS_P2;PMS_P1;PMS_P2;Temp;Humidity;BMP_temperature;BMP_pressure;BME280_temperature;BME280_humidity;BME280_pressure;Samples;Min_cycle;Max_cycle;Signal;HPM_P1;HPM_P2
2023/12/16 00:00:59;;;;;;;26.80;6.63;;;;;;;;;;5014853;28;20502;-85
2023/12/16 00:03:25;;;;;;;14.57;5.87;;;;;;;;;;5014689;28;20471;-87
2023/12/16 00:05:53;;;;;;;17.57;6.20;;;;;;;;;;5014774;28;20415;-88
2023/12/16 00:08:18;;;;;;;17.67;6.13;;;;;;;;;;5014645;28;20419;-86
2023/12/16 00:10:44;;;;;;;18.07;7.40;;;;;;;;;;5014661;28;20441;-85
2023/12/16 00:13:10;;;;;;;15.50;6.70;;;;;;;;;;5013914;28;20453;-88
2023/12/16 00:15:36;;;;;;;18.17;4.83;;;;;;;;;;5029809;28;20409;-88
2023/12/16 00:18:02;;;;;;;15.20;5.33;;;;;;;;;;5014566;28;20781;-89
2023/12/16 00:20:28;;;;;;;23.70;9.00;;;;;;;;;;5014448;28;20410;-83
2023/12/16 00:22:54;;;;;;;22.47;7.63;;;;;;;;;;5014403;28;20484;-84
2023/12/16 00:25:20;;;;;;;16.87;5.80;;;;;;;;;;5014098;28;20497;-84
2023/12/16 00:27:52;;;;;;;13.83;6.50;;;;;;;;;;5014093;28;20441;-88
2023/12/16 00:30:21;;;;;;;17.03;5.83;;;;;;;;;;5014295;28;21135;-88
2023/12/16 00:32:48;;;;;;;18.33;6.80;;;;;;;;;;5014081;28;20497;-86
2023/12/16 00:35:14;;;;;;;16.60;5.50;;;;;;;;;;5012016;28;20421;-81
2023/12/16 00:37:40;;;;;;;16.53;5.57;;;;;;;;;;4976828;28;20759;-88
2023/12/16 00:40:07;;;;;;;23.30;5.80;;;;;;;;;;5014081;28;20448;-88
2023/12/16 00:42:33;;;;;;;16.20;4.80;;;;;;;;;;5028737;28;20479;-88
2023/12/16 00:44:59;;;;;;;13.97;6.37;;;;;;;;;;5013928;28;20941;-88
2023/12/16 00:47:25;;;;;;;15.63;5.00;;;;;;;;;;5013935;28;20433;-86
2023/12/16 00:49:54;;;;;;;21.83;6.57;;;;;;;;;;5029020;28;20487;-87
2023/12/16 00:52:20;;;;;;;16.40;5.43;;;;;;;;;;5013768;28;20481;-87
2023/12/16 00:54:46;;;;;;;12.30;5.67;;;;;;;;;;5013779;28;20420;-86
2023/12/16 00:57:12;;;;;;;19.10;5.97;;;;;;;;;;5013447;28;20495;-85
2023/12/16 00:59:37;;;;;;;18.27;6.00;;;;;;;;;;5013716;28;20488;-86
2023/12/16 01:02:04;;;;;;;17.30;5.60;;;;;;;;;;5013481;28;20416;-85
2023/12/16 01:04:30;;;;;;;14.93;5.60;;;;;;;;;;5012849;28;20421;-85
2023/12/16 01:06:56;;;;;;;16.37;4.90;;;;;;;;;;5012918;28;20423;-86
2023/12/16 01:09:24;;;;;;;15.43;4.60;;;;;;;;;;5028260;28;20424;-82
2023/12/16 01:11:53;;;;;;;14.40;4.73;;;;;;;;;;5012571;28;20409;-87
2023/12/16 01:14:19;;;;;;;19.03;4.73;;;;;;;;;;5010593;28;20404;-83
2023/12/16 01:16:45;;;;;;;18.40;6.43;;;;;;;;;;5027982;28;20955;-86
2023/12/16 01:19:10;;;;;;;13.67;6.00;;;;;;;;;;5012928;28;20806;-87
2023/12/16 01:21:41;;;;;;;15.77;5.90;;;;;;;;;;5012842;28;20413;-86
2023/12/16 01:24:07;;;;;;;17.83;5.73;;;;;;;;;;5027210;28;20213;-85
2023/12/16 01:26:32;;;;;;;19.53;7.00;;;;;;;;;;5027346;28;20798;-87
2023/12/16 01:28:58;;;;;;;12.57;3.53;;;;;;;;;;5012974;28;20426;-87
2023/12/16 01:31:27;;;;;;;14.90;5.47;;;;;;;;;;5013006;28;20196;-87
2023/12/16 01:33:53;;;;;;;16.63;4.93;;;;;;;;;;5012773;28;20759;-88
2023/12/16 01:36:19;;;;;;;14.60;4.37;;;;;;;;;;5012764;28;20431;-85
2023/12/16 01:38:45;;;;;;;21.00;5.80;;;;;;;;;;5012666;28;20411;-86
2023/12/16 01:41:14;;;;;;;22.10;6.47;;;;;;;;;;5012335;28;20523;-86
2023/12/16 01:43:40;;;;;;;16.70;4.47;;;;;;;;;;5025579;28;20463;-87
2023/12/16 01:46:06;;;;;;;14.70;4.33;;;;;;;;;;5012772;28;20467;-86
2023/12/16 01:48:33;;;;;;;14.93;4.73;;;;;;;;;;5012645;28;20422;-85
2023/12/16 01:50:59;;;;;;;15.53;5.70;;;;;;;;;;5012795;28;20408;-84
2023/12/16 01:53:26;;;;;;;18.10;4.57;;;;;;;;;;5012865;28;20477;-88
2023/12/16 01:55:52;;;;;;;16.40;5.07;;;;;;;;;;5012426;28;20454;-88
2023/12/16 01:58:18;;;;;;;12.53;4.63;;;;;;;;;;5012315;28;20918;-87
2023/12/16 02:00:46;;;;;;;16.60;5.20;;;;;;;;;;5012577;28;20411;-85
2023/12/16 02:03:14;;;;;;;14.43;4.60;;;;;;;;;;5012461;28;20483;-86
2023/12/16 02:05:39;;;;;;;16.17;4.80;;;;;;;;;;5012573;28;20500;-87
2023/12/16 02:08:05;;;;;;;17.77;5.80;;;;;;;;;;5012509;28;20516;-87
2023/12/16 02:10:34;;;;;;;13.50;4.07;;;;;;;;;;5012522;28;20500;-87
2023/12/16 02:13:03;;;;;;;15.40;4.10;;;;;;;;;;5012044;28;20945;-87
2023/12/16 02:15:29;;;;;;;15.70;4.17;;;;;;;;;;5012438;28;20467;-85
2023/12/16 02:17:55;;;;;;;12.33;3.80;;;;;;;;;;5012449;28;20414;-85
2023/12/16 02:20:22;;;;;;;15.50;3.43;;;;;;;;;;5027644;28;20444;-85
2023/12/16 02:22:48;;;;;;;12.00;3.80;;;;;;;;;;5012236;28;20509;-87
2023/12/16 02:25:15;;;;;;;15.00;3.20;;;;;;;;;;5012642;28;20468;-87
2023/12/16 02:27:41;;;;;;;10.50;3.47;;;;;;;;;;5012686;28;20404;-87
2023/12/16 02:30:10;;;;;;;14.97;3.53;;;;;;;;;;5012700;28;20413;-85
2023/12/16 02:32:36;;;;;;;13.40;2.80;;;;;;;;;;5027804;28;20422;-85
2023/12/16 02:35:02;;;;;;;10.07;3.03;;;;;;;;;;5013163;28;20487;-86
2023/12/16 02:37:29;;;;;;;12.30;3.00;;;;;;;;;;4990206;28;20521;-87
2023/12/16 02:39:55;;;;;;;10.77;2.90;;;;;;;;;;5016224;28;20416;-86
2023/12/16 02:42:21;;;;;;;14.27;3.40;;;;;;;;;;5015787;28;20428;-86
2023/12/16 02:44:47;;;;;;;9.47;3.70;;;;;;;;;;5016130;28;20425;-86
2023/12/16 02:47:13;;;;;;;14.27;2.67;;;;;;;;;;5015925;28;20421;-87
2023/12/16 02:49:39;;;;;;;12.87;2.83;;;;;;;;;;5031353;28;20429;-86
2023/12/16 02:52:05;;;;;;;13.23;2.63;;;;;;;;;;5031255;28;21009;-86
2023/12/16 02:54:31;;;;;;;12.67;2.80;;;;;;;;;;5015929;28;20771;-88
2023/12/16 02:56:58;;;;;;;10.40;1.93;;;;;;;;;;5015787;28;20419;-88
2023/12/16 02:59:24;;;;;;;8.63;2.20;;;;;;;;;;5016211;28;20413;-87
2023/12/16 03:01:50;;;;;;;11.63;3.07;;;;;;;;;;5015948;28;20770;-82
2023/12/16 03:04:16;;;;;;;8.70;2.00;;;;;;;;;;5015699;28;20518;-82
2023/12/16 03:06:42;;;;;;;7.33;1.60;;;;;;;;;;5030941;28;20498;-82
2023/12/16 03:09:09;;;;;;;7.37;2.10;;;;;;;;;;5015744;28;20421;-82
2023/12/16 03:11:35;;;;;;;9.70;2.00;;;;;;;;;;5030543;28;20413;-82
2023/12/16 03:14:01;;;;;;;10.33;2.23;;;;;;;;;;5030835;28;20773;-81
2023/12/16 03:16:26;;;;;;;12.13;2.40;;;;;;;;;;5015546;28;20445;-81
2023/12/16 03:18:52;;;;;;;15.33;2.30;;;;;;;;;;5030737;28;20949;-81
2023/12/16 03:21:18;;;;;;;7.90;2.17;;;;;;;;;;5015527;28;20447;-81
2023/12/16 03:23:44;;;;;;;10.23;1.53;;;;;;;;;;5015392;28;20222;-81
2023/12/16 03:26:10;;;;;;;8.33;2.30;;;;;;;;;;5014438;28;20517;-81
2023/12/16 03:28:36;;;;;;;7.83;1.20;;;;;;;;;;5014770;28;20440;-81
2023/12/16 03:31:02;;;;;;;9.03;1.63;;;;;;;;;;5014729;28;20893;-81
2023/12/16 03:33:28;;;;;;;8.70;2.50;;;;;;;;;;5014735;28;20414;-81
2023/12/16 03:35:53;;;;;;;7.70;1.73;;;;;;;;;;5014998;28;20405;-81
2023/12/16 03:38:19;;;;;;;11.23;2.40;;;;;;;;;;5014009;28;20423;-80
2023/12/16 03:40:54;;;;;;;10.00;2.63;;;;;;;;;;5014121;28;20419;-81
2023/12/16 03:43:20;;;;;;;12.37;3.40;;;;;;;;;;5014911;28;20481;-81
2023/12/16 03:45:46;;;;;;;11.00;3.10;;;;;;;;;;5014701;28;20404;-81
2023/12/16 03:48:11;;;;;;;8.83;1.90;;;;;;;;;;5013437;28;20451;-81
2023/12/16 03:50:40;;;;;;;4.23;1.47;;;;;;;;;;5014842;28;20412;-81
2023/12/16 03:53:06;;;;;;;9.53;2.03;;;;;;;;;;5014903;28;20416;-81
2023/12/16 03:55:32;;;;;;;8.80;2.03;;;;;;;;;;5014849;28;20471;-82
2023/12/16 03:57:58;;;;;;;7.03;2.33;;;;;;;;;;5014403;28;20412;-81
2023/12/16 04:00:24;;;;;;;13.67;2.83;;;;;;;;;;5014810;28;20405;-81
2023/12/16 04:02:50;;;;;;;11.13;2.47;;;;;;;;;;5014632;28;20973;-81
2023/12/16 04:05:16;;;;;;;7.73;2.00;;;;;;;;;;5014657;28;20496;-81
2023/12/16 04:07:42;;;;;;;12.13;2.00;;;;;;;;;;5029869;28;20420;-81
2023/12/16 04:10:10;;;;;;;6.50;1.77;;;;;;;;;;5014493;28;20809;-81
2023/12/16 04:12:36;;;;;;;13.57;2.10;;;;;;;;;;5014139;28;20429;-82
2023/12/16 04:15:01;;;;;;;21.50;3.90;;;;;;;;;;5014428;28;20468;-81
2023/12/16 04:17:30;;;;;;;12.10;2.20;;;;;;;;;;5014419;28;20427;-81
2023/12/16 04:19:56;;;;;;;8.67;2.00;;;;;;;;;;5014449;28;20500;-82
2023/12/16 04:22:22;;;;;;;17.50;2.90;;;;;;;;;;5029460;28;20902;-81
2023/12/16 04:24:50;;;;;;;8.77;1.80;;;;;;;;;;4987882;28;20454;-80
2023/12/16 04:27:16;;;;;;;13.40;2.40;;;;;;;;;;5014090;28;20412;-81
2023/12/16 04:29:42;;;;;;;12.90;2.20;;;;;;;;;;5014228;28;20428;-82
2023/12/16 04:32:07;;;;;;;12.60;1.67;;;;;;;;;;5014263;28;20757;-82
2023/12/16 04:34:34;;;;;;;11.80;2.60;;;;;;;;;;5014189;28;20421;-81
2023/12/16 04:36:59;;;;;;;10.70;2.97;;;;;;;;;;5014126;28;20422;-81
2023/12/16 04:39:25;;;;;;;11.90;2.03;;;;;;;;;;5029302;28;20426;-82
2023/12/16 04:41:51;;;;;;;11.67;2.20;;;;;;;;;;5028290;28;20784;-82
2023/12/16 04:44:17;;;;;;;5.90;1.63;;;;;;;;;;5013922;28;20480;-82
2023/12/16 04:46:43;;;;;;;6.63;1.43;;;;;;;;;;5014007;28;20813;-82
2023/12/16 04:49:09;;;;;;;8.30;2.33;;;;;;;;;;5013922;28;20452;-82
2023/12/16 04:51:35;;;;;;;5.70;1.30;;;;;;;;;;5013904;28;20227;-82
2023/12/16 04:54:01;;;;;;;9.07;2.97;;;;;;;;;;5013766;28;20955;-81
2023/12/16 04:56:27;;;;;;;8.93;1.60;;;;;;;;;;5013390;28;20420;-82
2023/12/16 04:58:53;;;;;;;8.33;2.27;;;;;;;;;;5012787;28;20956;-82
2023/12/16 05:01:19;;;;;;;8.03;2.60;;;;;;;;;;5013671;28;20425;-81
2023/12/16 05:03:45;;;;;;;13.13;2.90;;;;;;;;;;5013756;28;20897;-81
2023/12/16 05:06:14;;;;;;;7.93;2.20;;;;;;;;;;5013666;28;20337;-81
2023/12/16 05:08:43;;;;;;;6.50;2.20;;;;;;;;;;5013632;28;20413;-81
2023/12/16 05:11:09;;;;;;;10.13;3.17;;;;;;;;;;5013235;28;20437;-81
2023/12/16 05:13:37;;;;;;;7.57;3.00;;;;;;;;;;5013546;28;20754;-81
2023/12/16 05:16:03;;;;;;;10.20;2.20;;;;;;;;;;5028731;28;20420;-82
2023/12/16 05:18:29;;;;;;;9.37;1.93;;;;;;;;;;5013410;28;20424;-81
2023/12/16 05:20:55;;;;;;;7.83;1.93;;;;;;;;;;5028543;28;20757;-81
2023/12/16 05:23:21;;;;;;;10.97;2.63;;;;;;;;;;5013302;28;20228;-81
2023/12/16 05:25:47;;;;;;;8.93;2.50;;;;;;;;;;5011728;28;20795;-80
2023/12/16 05:28:13;;;;;;;12.00;2.60;;;;;;;;;;5013308;28;20417;-80
2023/12/16 05:30:39;;;;;;;11.17;3.40;;;;;;;;;;5013252;28;20927;-81
2023/12/16 05:33:05;;;;;;;9.67;2.67;;;;;;;;;;5013261;28;20498;-82
2023/12/16 05:35:31;;;;;;;7.30;1.53;;;;;;;;;;5013233;28;20462;-82
2023/12/16 05:37:57;;;;;;;7.63;2.30;;;;;;;;;;5013232;28;20415;-80
2023/12/16 05:40:23;;;;;;;10.57;1.87;;;;;;;;;;5028463;28;20444;-80
2023/12/16 05:42:49;;;;;;;13.93;3.30;;;;;;;;;;5028017;28;20548;-81
2023/12/16 05:45:15;;;;;;;13.83;3.07;;;;;;;;;;5013144;28;20185;-81
2023/12/16 05:47:41;;;;;;;7.77;2.10;;;;;;;;;;5028329;28;20434;-82
2023/12/16 05:50:10;;;;;;;11.37;2.60;;;;;;;;;;5013127;28;20443;-81
2023/12/16 05:52:39;;;;;;;10.80;1.77;;;;;;;;;;5011943;28;20415;-82
2023/12/16 05:55:05;;;;;;;9.10;2.50;;;;;;;;;;5013084;28;20423;-82
2023/12/16 05:57:31;;;;;;;7.77;1.90;;;;;;;;;;5012716;28;20417;-81
2023/12/16 05:59:57;;;;;;;11.63;1.90;;;;;;;;;;5013006;28;20983;-82
2023/12/16 06:02:23;;;;;;;12.90;1.60;;;;;;;;;;5012953;28;20470;-82
2023/12/16 06:04:49;;;;;;;8.70;3.17;;;;;;;;;;5013038;28;20479;-82
2023/12/16 06:07:15;;;;;;;7.90;1.97;;;;;;;;;;5012995;28;20414;-82
2023/12/16 06:09:41;;;;;;;8.23;2.40;;;;;;;;;;5013134;28;20758;-82
2023/12/16 06:12:07;;;;;;;8.50;3.53;;;;;;;;;;5016518;28;20474;-82
2023/12/16 06:14:33;;;;;;;6.23;2.30;;;;;;;;;;5016724;28;20415;-82
2023/12/16 06:16:59;;;;;;;7.20;2.70;;;;;;;;;;5016775;28;20431;-81
2023/12/16 06:19:26;;;;;;;10.30;2.60;;;;;;;;;;5016788;28;20412;-82
2023/12/16 06:21:58;;;;;;;6.40;2.20;;;;;;;;;;5031920;28;20436;-82
2023/12/16 06:24:23;;;;;;;13.53;2.10;;;;;;;;;;5031683;28;20562;-82
2023/12/16 06:26:49;;;;;;;12.33;1.93;;;;;;;;;;5016034;28;20537;-82
2023/12/16 06:29:15;;;;;;;8.57;2.07;;;;;;;;;;5016505;28;20780;-82
2023/12/16 06:31:41;;;;;;;5.10;1.80;;;;;;;;;;5016435;28;20410;-82
2023/12/16 06:34:08;;;;;;;7.67;2.10;;;;;;;;;;5016343;28;20413;-82
2023/12/16 06:36:34;;;;;;;10.20;2.23;;;;;;;;;;4996045;28;20426;-82
2023/12/16 06:38:59;;;;;;;10.60;3.33;;;;;;;;;;4996230;28;20417;-82
2023/12/16 06:41:29;;;;;;;6.07;1.80;;;;;;;;;;5015951;28;20420;-82
2023/12/16 06:43:55;;;;;;;11.03;1.90;;;;;;;;;;5016072;28;20472;-81
2023/12/16 06:46:24;;;;;;;7.23;1.70;;;;;;;;;;5016161;28;20975;-82
2023/12/16 06:48:50;;;;;;;11.23;2.30;;;;;;;;;;5016021;28;20428;-82
2023/12/16 06:51:16;;;;;;;5.57;1.20;;;;;;;;;;5016013;28;20443;-82
2023/12/16 06:53:41;;;;;;;9.20;2.77;;;;;;;;;;5015922;28;20845;-82
2023/12/16 06:56:08;;;;;;;8.13;2.07;;;;;;;;;;5015471;28;20430;-81
2023/12/16 06:58:34;;;;;;;6.00;1.40;;;;;;;;;;5015907;28;20440;-82
2023/12/16 07:01:00;;;;;;;9.23;2.33;;;;;;;;;;5015688;28;20411;-82
2023/12/16 07:03:28;;;;;;;8.20;2.00;;;;;;;;;;5015801;28;20471;-82
2023/12/16 07:05:54;;;;;;;9.50;2.63;;;;;;;;;;5015802;28;20420;-82
2023/12/16 07:08:20;;;;;;;12.37;3.00;;;;;;;;;;5030944;28;20439;-82
2023/12/16 07:10:46;;;;;;;6.40;2.00;;;;;;;;;;5015363;28;20777;-82
2023/12/16 07:13:12;;;;;;;7.83;1.47;;;;;;;;;;5015637;28;20993;-83
2023/12/16 07:15:38;;;;;;;9.67;2.53;;;;;;;;;;5015614;28;20415;-82
2023/12/16 07:18:04;;;;;;;8.40;2.70;;;;;;;;;;5015450;28;20412;-82
2023/12/16 07:20:30;;;;;;;9.37;2.07;;;;;;;;;;5015500;28;20416;-82
2023/12/16 07:22:56;;;;;;;9.90;4.77;;;;;;;;;;5014230;28;20479;-82
2023/12/16 07:25:22;;;;;;;7.50;1.80;;;;;;;;;;5014820;28;20450;-82
2023/12/16 07:27:48;;;;;;;9.00;1.90;;;;;;;;;;5015244;28;20424;-82
2023/12/16 07:30:16;;;;;;;6.87;1.43;;;;;;;;;;5014148;28;20540;-82
2023/12/16 07:32:42;;;;;;;6.10;1.23;;;;;;;;;;5015125;28;20511;-82
2023/12/16 07:35:13;;;;;;;10.50;1.90;;;;;;;;;;5015076;28;20448;-82
2023/12/16 07:37:42;;;;;;;5.70;1.23;;;;;;;;;;5015200;28;20415;-82
2023/12/16 07:40:08;;;;;;;5.60;1.40;;;;;;;;;;5015090;28;20468;-82
2023/12/16 07:42:36;;;;;;;8.50;2.30;;;;;;;;;;5014505;28;20423;-81
2023/12/16 07:45:03;;;;;;;5.97;2.27;;;;;;;;;;5030101;28;20877;-83
2023/12/16 07:47:28;;;;;;;7.17;1.60;;;;;;;;;;5015001;28;20777;-83
2023/12/16 07:49:54;;;;;;;6.80;2.33;;;;;;;;;;5030192;28;20421;-82
2023/12/16 07:52:21;;;;;;;13.67;1.83;;;;;;;;;;5014910;28;20417;-83
2023/12/16 07:54:47;;;;;;;8.13;1.70;;;;;;;;;;5014894;28;20778;-83
2023/12/16 07:57:13;;;;;;;8.37;1.97;;;;;;;;;;5013784;28;20415;-83
2023/12/16 07:59:40;;;;;;;10.63;2.30;;;;;;;;;;5014686;28;20502;-82
2023/12/16 08:02:08;;;;;;;5.53;1.93;;;;;;;;;;5029868;28;20420;-82
2023/12/16 08:04:34;;;;;;;10.03;2.00;;;;;;;;;;5014498;28;20474;-83
2023/12/16 08:07:00;;;;;;;7.33;1.03;;;;;;;;;;5014630;28;20528;-82
2023/12/16 08:09:26;;;;;;;6.30;1.53;;;;;;;;;;5014648;28;20449;-81
2023/12/16 08:11:57;;;;;;;9.07;1.23;;;;;;;;;;5014236;28;20412;-81
2023/12/16 08:14:23;;;;;;;12.67;2.97;;;;;;;;;;5014461;28;20848;-82
2023/12/16 08:16:49;;;;;;;5.73;1.70;;;;;;;;;;5029666;28;20479;-82
2023/12/16 08:19:15;;;;;;;8.63;1.63;;;;;;;;;;5014429;28;20449;-81
2023/12/16 08:21:41;;;;;;;7.97;1.13;;;;;;;;;;5029588;28;20406;-82
2023/12/16 08:24:07;;;;;;;9.43;1.60;;;;;;;;;;5014258;28;20473;-82
2023/12/16 08:26:33;;;;;;;10.53;1.53;;;;;;;;;;5013773;28;20224;-82
2023/12/16 08:28:59;;;;;;;8.30;1.60;;;;;;;;;;5029453;28;20439;-82
2023/12/16 08:31:25;;;;;;;7.10;1.60;;;;;;;;;;5014265;28;20491;-82
2023/12/16 08:33:50;;;;;;;8.20;2.10;;;;;;;;;;5013949;28;21190;-84
2023/12/16 08:36:16;;;;;;;10.03;1.87;;;;;;;;;;5014093;28;20171;-82
2023/12/16 08:38:44;;;;;;;6.93;1.93;;;;;;;;;;5014120;28;20420;-83
2023/12/16 08:41:10;;;;;;;8.90;2.60;;;;;;;;;;5013628;28;20181;-83
2023/12/16 08:43:36;;;;;;;12.00;2.33;;;;;;;;;;5013892;28;20967;-83
2023/12/16 08:46:03;;;;;;;16.80;2.53;;;;;;;;;;5013939;28;20430;-83
2023/12/16 08:48:29;;;;;;;8.53;1.63;;;;;;;;;;5013829;28;20419;-84
2023/12/16 08:50:58;;;;;;;10.70;1.67;;;;;;;;;;5013833;28;20938;-83
2023/12/16 08:53:25;;;;;;;5.53;2.13;;;;;;;;;;5013814;28;20463;-83
2023/12/16 08:55:51;;;;;;;8.23;2.10;;;;;;;;;;5028607;28;20449;-82
2023/12/16 08:58:17;;;;;;;12.47;2.53;;;;;;;;;;5028930;28;20409;-83
2023/12/16 09:00:43;;;;;;;10.83;2.40;;;;;;;;;;5013636;28;20497;-84
2023/12/16 09:03:09;;;;;;;11.97;4.00;;;;;;;;;;5013660;28;20492;-84
2023/12/16 09:05:36;;;;;;;9.90;3.07;;;;;;;;;;4972324;28;20421;-81
2023/12/16 09:08:02;;;;;;;20.67;3.30;;;;;;;;;;5013406;28;20409;-82
2023/12/16 09:10:31;;;;;;;11.80;2.20;;;;;;;;;;5012842;28;20413;-81
2023/12/16 09:12:58;;;;;;;13.50;2.73;;;;;;;;;;5011753;28;20418;-81
2023/12/16 09:15:24;;;;;;;9.63;3.23;;;;;;;;;;5012519;28;20441;-81
2023/12/16 09:17:50;;;;;;;11.97;3.23;;;;;;;;;;5012677;28;20513;-83
2023/12/16 09:20:16;;;;;;;12.50;2.60;;;;;;;;;;5013373;28;20424;-83
2023/12/16 09:22:42;;;;;;;9.23;1.73;;;;;;;;;;5013325;28;20477;-84
2023/12/16 09:25:09;;;;;;;7.00;3.30;;;;;;;;;;5012495;28;20456;-82
2023/12/16 09:27:35;;;;;;;10.33;3.77;;;;;;;;;;5013146;28;20420;-83
2023/12/16 09:30:02;;;;;;;11.50;4.50;;;;;;;;;;5013271;28;20924;-83
2023/12/16 09:32:28;;;;;;;15.70;4.20;;;;;;;;;;5013193;28;20900;-82
2023/12/16 09:34:54;;;;;;;9.70;3.23;;;;;;;;;;5013214;28;20466;-82
2023/12/16 09:37:20;;;;;;;13.43;3.77;;;;;;;;;;5028466;28;20420;-81
2023/12/16 09:39:45;;;;;;;13.40;4.43;;;;;;;;;;5013240;28;20777;-83
2023/12/16 09:42:14;;;;;;;11.37;4.00;;;;;;;;;;5012696;28;20454;-82
2023/12/16 09:44:41;;;;;;;9.10;4.77;;;;;;;;;;5028390;28;20508;-83
2023/12/16 09:47:12;;;;;;;8.63;4.17;;;;;;;;;;5032459;28;20418;-82
2023/12/16 09:49:41;;;;;;;11.70;3.87;;;;;;;;;;5017201;28;20420;-83
2023/12/16 09:52:07;;;;;;;8.50;4.87;;;;;;;;;;5017159;28;20417;-82
2023/12/16 09:54:54;;;;;;;10.30;5.40;;;;;;;;;;5032328;28;20419;-83
2023/12/16 09:57:22;;;;;;;10.33;4.60;;;;;;;;;;5017031;28;20792;-82
2023/12/16 09:59:48;;;;;;;11.07;5.10;;;;;;;;;;5017070;28;20460;-82
2023/12/16 10:02:27;;;;;;;11.73;5.27;;;;;;;;;;5016922;28;20471;-82
2023/12/16 10:04:56;;;;;;;9.93;5.90;;;;;;;;;;4977682;28;20442;-81
2023/12/16 10:07:22;;;;;;;11.07;5.83;;;;;;;;;;5016270;28;20419;-83
2023/12/16 10:09:48;;;;;;;10.43;5.70;;;;;;;;;;5016229;28;20970;-83
2023/12/16 10:12:18;;;;;;;10.93;5.60;;;;;;;;;;5016336;28;20428;-83
2023/12/16 10:14:45;;;;;;;13.37;6.10;;;;;;;;;;5016446;28;20486;-83
2023/12/16 10:17:11;;;;;;;12.20;6.90;;;;;;;;;;5016168;28;20510;-84
2023/12/16 10:19:37;;;;;;;13.40;6.20;;;;;;;;;;5016587;28;20449;-84
2023/12/16 10:22:03;;;;;;;13.53;6.90;;;;;;;;;;5016334;28;20417;-81
2023/12/16 10:24:29;;;;;;;11.83;6.50;;;;;;;;;;5016507;28;20463;-81
2023/12/16 10:26:55;;;;;;;14.20;6.90;;;;;;;;;;5016010;28;20983;-80
2023/12/16 10:29:21;;;;;;;11.77;6.23;;;;;;;;;;5015984;28;20424;-81
2023/12/16 10:31:50;;;;;;;17.60;8.20;;;;;;;;;;5016318;28;20462;-80
2023/12/16 10:34:17;;;;;;;12.73;6.90;;;;;;;;;;5015890;28;20482;-82
2023/12/16 10:36:43;;;;;;;15.17;6.90;;;;;;;;;;5016053;28;20457;-83
2023/12/16 10:39:09;;;;;;;25.47;8.20;;;;;;;;;;5016187;28;20516;-82
2023/12/16 10:41:34;;;;;;;12.77;7.23;;;;;;;;;;5015952;28;20491;-81
2023/12/16 10:44:00;;;;;;;16.63;7.27;;;;;;;;;;5015978;28;20532;-81
2023/12/16 10:46:35;;;;;;;14.40;7.53;;;;;;;;;;5031222;28;20221;-83
2023/12/16 10:49:01;;;;;;;17.67;6.20;;;;;;;;;;5016613;28;20418;-82
2023/12/16 10:51:28;;;;;;;20.23;8.03;;;;;;;;;;5031296;28;20409;-82
2023/12/16 10:54:00;;;;;;;12.93;8.10;;;;;;;;;;5015861;28;20469;-82
2023/12/16 10:56:30;;;;;;;15.77;7.23;;;;;;;;;;5030602;28;20425;-82
2023/12/16 10:59:04;;;;;;;15.87;8.07;;;;;;;;;;5015680;28;20489;-82
2023/12/16 11:01:34;;;;;;;16.67;8.37;;;;;;;;;;5015205;28;20423;-81
2023/12/16 11:04:06;;;;;;;15.17;7.50;;;;;;;;;;4988092;28;20484;-80
2023/12/16 11:06:46;;;;;;;19.20;8.50;;;;;;;;;;4986556;28;20473;-82
2023/12/16 11:09:13;;;;;;;16.23;9.53;;;;;;;;;;4996192;28;20491;-81
2023/12/16 11:11:41;;;;;;;19.90;7.77;;;;;;;;;;4995734;28;20469;-82
2023/12/16 11:14:07;;;;;;;13.37;8.87;;;;;;;;;;4995934;28;20423;-83
2023/12/16 11:16:56;;;;;;;23.13;10.97;;;;;;;;;;4995956;28;20478;-84
2023/12/16 11:19:23;;;;;;;16.53;8.60;;;;;;;;;;4977216;28;20457;-84
2023/12/16 11:21:50;;;;;;;16.97;8.30;;;;;;;;;;5011029;28;20950;-82
2023/12/16 11:24:16;;;;;;;15.13;8.23;;;;;;;;;;4995781;28;20569;-82
2023/12/16 11:26:42;;;;;;;17.60;8.40;;;;;;;;;;4995282;28;20560;-82
2023/12/16 11:29:08;;;;;;;14.83;9.60;;;;;;;;;;4995858;28;20514;-80
2023/12/16 11:31:36;;;;;;;17.00;8.90;;;;;;;;;;4995684;28;20403;-80
2023/12/16 11:34:03;;;;;;;13.43;9.97;;;;;;;;;;4995695;28;20740;-83
2023/12/16 11:36:52;;;;;;;17.07;8.60;;;;;;;;;;4995500;28;20438;-82
2023/12/16 11:39:37;;;;;;;17.23;9.10;;;;;;;;;;5010615;28;20431;-84
2023/12/16 11:42:03;;;;;;;16.87;8.60;;;;;;;;;;4995448;28;20768;-85
2023/12/16 11:44:48;;;;;;;19.87;9.67;;;;;;;;;;4995360;28;20468;-84
2023/12/16 11:47:32;;;;;;;19.90;10.00;;;;;;;;;;5010471;28;20432;-83
2023/12/16 11:49:58;;;;;;;14.20;9.97;;;;;;;;;;5010391;28;20909;-85
2023/12/16 11:52:25;;;;;;;14.40;9.37;;;;;;;;;;4995286;28;20413;-84
2023/12/16 11:54:52;;;;;;;16.57;9.00;;;;;;;;;;4994855;28;20440;-85
2023/12/16 11:57:36;;;;;;;20.03;10.33;;;;;;;;;;5010422;28;20475;-86
2023/12/16 12:00:01;;;;;;;19.50;9.83;;;;;;;;;;4995170;28;20818;-85
2023/12/16 12:02:28;;;;;;;16.57;10.30;;;;;;;;;;5010118;28;20429;-85
2023/12/16 12:04:54;;;;;;;17.70;10.30;;;;;;;;;;4995011;28;20786;-84
2023/12/16 12:07:20;;;;;;;23.30;11.00;;;;;;;;;;4970345;28;20436;-84
2023/12/16 12:09:46;;;;;;;19.33;11.97;;;;;;;;;;5013840;28;20880;-84
2023/12/16 12:12:16;;;;;;;21.70;12.13;;;;;;;;;;5029258;28;20516;-85
2023/12/16 12:14:46;;;;;;;20.20;11.87;;;;;;;;;;5029422;28;20422;-82
2023/12/16 12:17:13;;;;;;;28.20;12.90;;;;;;;;;;5014305;28;20444;-85
2023/12/16 12:19:38;;;;;;;14.83;10.63;;;;;;;;;;5013049;28;20484;-84
2023/12/16 12:22:06;;;;;;;21.17;11.37;;;;;;;;;;5013892;28;20417;-83
2023/12/16 12:24:32;;;;;;;17.57;11.37;;;;;;;;;;5013282;28;20527;-82
2023/12/16 12:26:58;;;;;;;15.93;10.83;;;;;;;;;;5013847;28;20458;-83
2023/12/16 12:29:24;;;;;;;18.17;11.10;;;;;;;;;;5014192;28;20518;-82
2023/12/16 12:31:50;;;;;;;19.40;10.90;;;;;;;;;;5013014;28;20504;-83
2023/12/16 12:34:18;;;;;;;16.63;12.40;;;;;;;;;;5014114;28;20538;-83
2023/12/16 12:36:44;;;;;;;16.10;11.60;;;;;;;;;;5014079;28;20405;-82
2023/12/16 12:39:17;;;;;;;23.40;12.10;;;;;;;;;;5013998;28;20910;-83
2023/12/16 12:41:43;;;;;;;18.77;12.10;;;;;;;;;;5013865;28;20416;-82
2023/12/16 12:44:10;;;;;;;17.60;11.20;;;;;;;;;;5013778;28;20472;-82
2023/12/16 12:46:44;;;;;;;18.73;12.40;;;;;;;;;;5029126;28;20424;-81
2023/12/16 12:49:10;;;;;;;20.67;11.73;;;;;;;;;;5013973;28;20502;-82
2023/12/16 12:51:36;;;;;;;26.97;13.30;;;;;;;;;;5014053;28;20409;-82
2023/12/16 12:54:02;;;;;;;18.33;13.17;;;;;;;;;;5013740;28;20890;-82
2023/12/16 12:56:28;;;;;;;19.93;13.17;;;;;;;;;;5013449;28;20416;-82
2023/12/16 12:58:54;;;;;;;19.80;11.60;;;;;;;;;;5013497;28;20467;-82
2023/12/16 13:01:20;;;;;;;21.03;13.10;;;;;;;;;;5013750;28;20414;-81
2023/12/16 13:03:46;;;;;;;18.37;12.43;;;;;;;;;;5012485;28;20551;-82
2023/12/16 13:06:11;;;;;;;15.20;11.23;;;;;;;;;;5013385;28;20959;-82
2023/12/16 13:08:37;;;;;;;18.47;10.53;;;;;;;;;;4987597;28;20456;-82
2023/12/16 13:11:03;;;;;;;16.30;11.70;;;;;;;;;;5013072;28;20582;-82
2023/12/16 13:13:29;;;;;;;18.23;12.50;;;;;;;;;;5013415;28;21044;-82
2023/12/16 13:16:05;;;;;;;20.60;12.03;;;;;;;;;;5013554;28;20407;-82
2023/12/16 13:18:31;;;;;;;20.63;11.90;;;;;;;;;;5013498;28;20423;-82
2023/12/16 13:20:57;;;;;;;22.33;11.40;;;;;;;;;;5027775;28;20411;-82
2023/12/16 13:23:23;;;;;;;16.73;11.93;;;;;;;;;;5013322;28;20520;-82
2023/12/16 13:25:49;;;;;;;17.33;11.60;;;;;;;;;;5012899;28;20464;-82
2023/12/16 13:28:15;;;;;;;15.80;10.40;;;;;;;;;;5013284;28;20449;-82
2023/12/16 13:30:41;;;;;;;17.07;11.00;;;;;;;;;;5013317;28;20456;-82
2023/12/16 13:33:08;;;;;;;14.83;11.13;;;;;;;;;;5013305;28;20478;-81
2023/12/16 13:35:34;;;;;;;20.13;13.77;;;;;;;;;;5012220;28;20403;-81
2023/12/16 13:38:00;;;;;;;19.00;13.17;;;;;;;;;;5013244;28;20186;-82
2023/12/16 13:40:26;;;;;;;17.83;11.33;;;;;;;;;;5012849;28;20414;-82
2023/12/16 13:42:51;;;;;;;21.08;13.52;;;;;;;;;;5012624;28;20446;-82
2023/12/16 13:45:17;;;;;;;16.80;12.10;;;;;;;;;;5028432;28;20180;-82
2023/12/16 13:47:46;;;;;;;19.40;11.67;;;;;;;;;;5013204;28;20414;-82
2023/12/16 13:50:12;;;;;;;19.43;11.43;;;;;;;;;;5028324;28;20425;-83
2023/12/16 13:52:38;;;;;;;16.23;10.87;;;;;;;;;;5011644;28;20759;-83
2023/12/16 13:55:05;;;;;;;12.80;9.70;;;;;;;;;;5012964;28;20425;-83
2023/12/16 13:57:31;;;;;;;19.40;12.07;;;;;;;;;;5013410;28;20782;-83
2023/12/16 13:59:58;;;;;;;17.33;11.30;;;;;;;;;;5013404;28;20421;-83
2023/12/16 14:02:27;;;;;;;12.20;9.63;;;;;;;;;;5013239;28;20415;-83
2023/12/16 14:04:55;;;;;;;15.20;11.57;;;;;;;;;;5028248;28;20563;-84
2023/12/16 14:07:22;;;;;;;13.87;9.50;;;;;;;;;;5013115;28;20508;-84
2023/12/16 14:09:48;;;;;;;14.83;9.93;;;;;;;;;;5012749;28;20413;-84
2023/12/16 14:12:14;;;;;;;17.73;12.77;;;;;;;;;;5012533;28;20419;-83
2023/12/16 14:14:40;;;;;;;19.83;13.70;;;;;;;;;;5028211;28;20447;-83
2023/12/16 14:17:06;;;;;;;18.77;12.10;;;;;;;;;;5012816;28;20416;-85
2023/12/16 14:19:35;;;;;;;17.63;12.43;;;;;;;;;;5012885;28;20419;-83
2023/12/16 14:22:01;;;;;;;17.17;12.53;;;;;;;;;;4974284;28;20713;-83
2023/12/16 14:24:27;;;;;;;21.00;13.40;;;;;;;;;;5012450;28;20478;-82
2023/12/16 14:26:54;;;;;;;19.47;12.77;;;;;;;;;;5012560;28;20962;-83
2023/12/16 14:29:20;;;;;;;17.60;12.60;;;;;;;;;;5012899;28;20913;-83